Southport, North Carolina
Current Conditions -  °F | °C
As of 11:15 AM on Friday 24 Oct 2014 (Local Time) from KSUT Reporting Station
Clear Clear  
Wind Chill: 16°   Ceiling: Unl
Heat Index: 16°   Visibility: 10mi
Dew Point:   Wind: 5mph
Humidity: 60%   Direction: 50°NE
Pressure: 30.06"   Gusts: NA
Location:  33.92°N, 78.02°W
Report Text: KSUT 241515Z AUTO 05004KT 10SM CLR 16/08 A3006 RMK AO2 T01620084
Loading
Personal Weather Stations






























Interactive Weather Map
Tropical Storm Tracking
New forecast layout! Learn more

10-Day Weather Forecast

Advertisements
Track Severe Weather on mobile